• Join FlightAware (Why Join?)
  • Login
  • US Flag 
05:14PM EDT


 

Airport Tracker/Info


-or-


 

Live Flight TrackerFlight Track Log ✈ AAL832 ✈ 18-Jun-2013 ✈ KLAX - KORD

Flight Track Log - Related Links

Times and Time Zones

All times are in EDT time to prevent confusion due to time zone crossing. See the AAL832 flight status page for this flight to view local times or setup timezone preferences in your user account.

Time Position Orientation Groundspeed Altitude Reporting Facility
EDT Latitude Longitude Course Direction KTS MPH feet Rate Location/Type
12:59PM 33.9300 -118.4540 247° West 192 221 1,600  Level FlightAware
01:00PM 33.9210 -118.4690 234° Southwest 204 235 2,000 1,140 Climbing FlightAware
01:00PM 33.9010 -118.4990 231° Southwest 242 278 2,500 1,380 Climbing FlightAware
01:01PM 33.8730 -118.5200 212° Southwest 262 302 3,400 1,800 Climbing FlightAware
01:01PM 33.8620 -118.5210 184° South 266 306 3,700 1,920 Climbing FlightAware
01:01PM 33.8300 -118.5200 179° South 278 320 4,500 2,160 Climbing FlightAware
01:02PM 33.7900 -118.5210 181° South 282 325 5,700 2,160 Climbing FlightAware
01:02PM 33.7700 -118.5210 180° South 288 331 6,200 1,800 Climbing FlightAware
01:02PM 33.7380 -118.5210 180° South 294 338 7,000 2,160 Climbing FlightAware
01:03PM 33.6980 -118.5040 161° South 304 350 8,300 2,400 Climbing FlightAware
01:03PM 33.6850 -118.4810 124° Southeast 311 358 8,800 2,280 Climbing FlightAware
01:04PM 33.6660 -118.4150 109° East 318 366 10,400 1,920 Climbing FlightAware
01:05PM 33.6460 -118.3360 107° East 350 403 11,600 1,380 Climbing FlightAware
01:06PM 33.6450 -118.2190 91° East 394 453 12,800 1,740 Climbing FlightAware
01:07PM 33.6450 -118.0940 90° East 407 468 14,900 2,400 Climbing FlightAware
01:07PM 33.6440 -117.9950 91° East 415 478 16,700 2,340 Climbing FlightAware
01:08PM 33.6440 -117.9050 90° East 425 489 18,100 2,100 Climbing FlightAware
01:09PM 33.6440 -117.8030 90° East 437 503 19,600 1,920 Climbing FlightAware
01:09PM 33.6440 -117.6970 90° East 453 521 20,800 1,860 Climbing FlightAware
01:10PM 33.6430 -117.5490 90° East 466 536 22,700 1,380 Climbing FlightAware
01:11PM 33.6420 -117.4450 91° East 472 543 23,900 1,560 Climbing FlightAware
01:12PM 33.6410 -117.2430 90° East 494 568 25,800 1,980 Climbing FlightAware
01:13PM 33.6400 -117.1250 91° East 503 579 26,800 1,380 Climbing FlightAware
01:14PM 33.6390 -117.0170 91° East 510 587 27,700 1,320 Climbing FlightAware
01:14PM 33.6380 -116.8900 91° East 517 595 28,700 1,320 Climbing FlightAware
01:15PM 33.6370 -116.7850 91° East 522 601 29,500 1,380 Climbing FlightAware
01:16PM 33.6460 -116.6460 86° East 525 604 30,700 1,380 Climbing FlightAware
01:16PM 33.6720 -116.5360 74° East 528 608 31,600 1,200 Climbing FlightAware
01:17PM 33.7010 -116.4140 74° East 529 609 32,400 540 Climbing FlightAware
01:18PM 33.7260 -116.3160 73° East 529 609 32,400  Level FlightAware
01:19PM 33.7630 -116.1720 73° East 529 609 32,400  Level FlightAware
01:19PM 33.7850 -116.0840 73° East 529 609 32,400  Level FlightAware
01:20PM 33.8000 -116.0260 73° East 529 609 32,400  Level FlightAware
01:21PM 33.8420 -115.8590 73° East 529 609 32,400  Level FlightAware
01:22PM 33.8650 -115.7670 73° East 529 609 32,400  Level FlightAware
01:23PM 33.9030 -115.6190 73° East 529 609 32,400  Level FlightAware
01:23PM 33.9250 -115.5330 73° East 529 609 32,400  Level FlightAware
01:24PM 33.9540 -115.4170 73° East 529 609 32,400  Level FlightAware
01:25PM 33.9750 -115.3340 73° East 529 609 32,400  Level FlightAware
01:25PM 33.9990 -115.2400 73° East 529 609 32,400  Level FlightAware
01:26PM 34.0300 -115.1180 73° East 529 609 32,400  Level FlightAware
01:27PM 34.0520 -115.0310 73° East 529 609 32,400 1,500 Level FlightAware
01:29PM 34.1730 -114.4320 76° East 505 581 37,000 1,440 Climbing FlightAware
01:30PM 34.2050 -114.3160 72° East 505 581 37,000  Level FlightAware
01:31PM 34.2380 -114.1990 71° East 505 581 37,000  Level FlightAware
01:31PM 34.2670 -114.0930 72° East 506 582 37,000  Level FlightAware
01:32PM 34.2990 -113.9790 71° East 506 582 37,000  Level FlightAware
01:33PM 34.3320 -113.8590 72° East 506 582 37,000  Level FlightAware
01:33PM 34.3610 -113.7530 72° East 507 583 37,000  Level FlightAware
01:34PM 34.3930 -113.6350 72° East 507 583 37,000  Level FlightAware
01:35PM 34.4530 -113.4150 72° East 507 583 37,000  Level FlightAware
01:36PM 34.4830 -113.3070 71° East 506 582 37,000  Level FlightAware
01:37PM 34.5110 -113.2020 72° East 506 582 37,000  Level FlightAware
01:37PM 34.5440 -113.0800 72° East 506 582 37,000  Level FlightAware
01:38PM 34.5740 -112.9680 72° East 506 582 37,000  Level FlightAware
01:39PM 34.6020 -112.8600 72° East 504 580 37,000  Level FlightAware
01:40PM 34.6320 -112.7470 72° East 502 578 37,000  Level FlightAware
01:40PM 34.6640 -112.6280 72° East 502 578 37,000  Level FlightAware
01:41PM 34.6950 -112.5110 72° East 502 578 37,000  Level FlightAware
01:42PM 34.7210 -112.4060 73° East 503 579 37,000  Level FlightAware
01:42PM 34.7460 -112.2940 75° East 503 579 37,000  Level FlightAware
01:43PM 34.7730 -112.1720 75° East 505 581 37,000  Level FlightAware
01:44PM 34.7990 -112.0580 74° East 504 580 37,000  Level FlightAware
01:44PM 34.8250 -111.9450 74° East 504 580 37,000  Level FlightAware
01:45PM 34.8620 -111.7800 75° East 505 581 37,000  Level FlightAware
01:46PM 34.8860 -111.6750 74° East 507 583 37,000  Level FlightAware
01:47PM 34.9140 -111.5470 75° East 507 583 37,000  Level FlightAware
01:48PM 34.9390 -111.4340 75° East 507 583 37,000  Level FlightAware
01:48PM 34.9610 -111.3350 75° East 506 582 37,000  Level FlightAware
01:49PM 34.9840 -111.2320 75° East 506 582 37,000  Level FlightAware
01:50PM 35.0120 -111.1030 75° East 506 582 37,000  Level FlightAware
01:50PM 35.0400 -110.9740 75° East 507 583 37,000  Level FlightAware
01:51PM 35.0640 -110.8650 75° East 508 585 37,000  Level FlightAware
01:52PM 35.0940 -110.7280 75° East 510 587 37,000  Level FlightAware
01:53PM 35.1250 -110.5810 76° East 513 590 37,000  Level FlightAware
01:53PM 35.1480 -110.4720 76° East 512 589 37,000  Level FlightAware
01:54PM 35.1740 -110.3510 75° East 512 589 37,000  Level FlightAware
01:55PM 35.1960 -110.2440 76° East 510 587 37,000  Level FlightAware
01:55PM 35.2240 -110.1100 76° East 508 585 37,000  Level FlightAware
01:56PM 35.2470 -110.0000 76° East 508 585 37,000  Level FlightAware
01:57PM 35.2670 -109.9070 75° East 508 585 37,000  Level FlightAware
01:58PM 35.2940 -109.7730 76° East 508 585 37,000  Level FlightAware
01:58PM 35.3170 -109.6640 75° East 509 586 37,000  Level FlightAware
01:59PM 35.3420 -109.5390 76° East 510 587 37,000  Level FlightAware
02:00PM 35.3640 -109.4330 76° East 510 587 37,000  Level FlightAware
02:00PM 35.3860 -109.3230 76° East 510 587 37,000  Level FlightAware
02:01PM 35.4120 -109.1920 76° East 509 586 37,000  Level FlightAware
02:02PM 35.4320 -109.0920 76° East 509 586 37,000  Level FlightAware
02:02PM 35.4570 -108.9720 76° East 509 586 37,000  Level FlightAware
02:03PM 35.4760 -108.8770 76° East 509 586 37,000  Level FlightAware
02:04PM 35.4930 -108.7910 76° East 509 586 37,000  Level FlightAware
02:04PM 35.5110 -108.7050 76° East 509 586 37,000  Level FlightAware
02:05PM 35.5340 -108.5880 76° East 509 586 37,000  Level FlightAware
02:06PM 35.6040 -108.4030 65° Northeast 506 582 37,000  Level FlightAware
02:06PM 35.6300 -108.3040 72° East 506 582 37,000  Level FlightAware
02:07PM 35.6620 -108.1850 72° East 507 583 37,000  Level FlightAware
02:08PM 35.6920 -108.0700 72° East 507 583 37,000  Level FlightAware
02:08PM 35.7190 -107.9700 72° East 507 583 37,000  Level FlightAware
02:09PM 35.7600 -107.8160 72° East 505 581 37,000  Level FlightAware
02:10PM 35.7980 -107.6700 72° East 505 581 37,000  Level FlightAware
02:11PM 35.8520 -107.4630 72° East 503 579 37,000  Level FlightAware
02:12PM 35.8820 -107.3480 72° East 503 579 37,000  Level FlightAware
02:13PM 35.9120 -107.2290 73° East 504 580 37,000  Level FlightAware
02:14PM 35.9410 -107.1180 72° East 504 580 37,000  Level FlightAware
02:14PM 35.9650 -107.0220 73° East 504 580 37,000  Level FlightAware
02:15PM 36.0050 -106.8710 72° East 504 580 37,000  Level FlightAware
02:16PM 36.0440 -106.7130 73° East 506 582 37,000  Level FlightAware
02:17PM 36.0730 -106.5950 73° East 506 582 37,000  Level FlightAware
02:17PM 36.1020 -106.4800 73° East 508 585 37,000  Level FlightAware
02:18PM 36.1260 -106.3860 72° East 509 586 37,000  Level FlightAware
02:19PM 36.1590 -106.2530 73° East 508 585 37,000  Level FlightAware
02:19PM 36.1840 -106.1490 73° East 508 585 37,000  Level FlightAware
02:20PM 36.2090 -106.0490 73° East 509 586 37,000  Level FlightAware
02:21PM 36.2380 -105.9300 73° East 508 585 37,000  Level FlightAware
02:21PM 36.2560 -105.8560 73° East 508 585 37,000  Level FlightAware
02:22PM 36.2780 -105.7710 72° East 508 585 37,000  Level FlightAware
02:22PM 36.2990 -105.6860 73° East 508 585 37,000  Level FlightAware
02:23PM 36.3270 -105.5720 73° East 508 585 37,000  Level FlightAware
02:24PM 36.3480 -105.4870 73° East 508 585 37,000  Level FlightAware
02:25PM 36.3830 -105.3440 73° East 508 585 37,000  Level FlightAware
02:25PM 36.4040 -105.2590 73° East 508 585 37,000  Level FlightAware
02:26PM 36.4320 -105.1430 73° East 508 585 37,000  Level FlightAware
02:27PM 36.4831 -104.9060 75° East 507 583 37,000  Level FlightAware ADS-B
02:27PM 36.5080 -104.8030 73° East 507 583 37,000  Level FlightAware ADS-B
02:28PM 36.5080 -104.8340 270° West 508 585 37,000  Level FlightAware
02:29PM 36.5310 -104.7410 73° East 508 585 37,000  Level FlightAware
02:30PM 36.5590 -104.6270 73° East 508 585 37,000  Level FlightAware
02:30PM 36.5790 -104.5440 73° East 508 585 37,000  Level FlightAware
02:33PM 36.7461 -103.9550 70° East 495 570 37,000  Level FlightAware ADS-B
02:33PM 36.7772 -103.8700 65° Northeast 496 571 37,000  Level FlightAware ADS-B
02:34PM 36.8059 -103.7900 66° East 497 572 37,000  Level FlightAware ADS-B
02:34PM 36.8391 -103.6980 66° East 499 574 37,000  Level FlightAware ADS-B
02:35PM 36.8713 -103.6070 66° East 500 575 37,000  Level FlightAware ADS-B
02:35PM 36.8998 -103.5260 66° East 501 577 37,000  Level FlightAware ADS-B
02:36PM 36.9304 -103.4400 66° East 501 577 37,000  Level FlightAware ADS-B
02:36PM 36.9600 -103.3570 66° East 501 577 37,000  Level FlightAware ADS-B
02:37PM 36.9884 -103.2770 66° East 501 577 37,000  Level FlightAware ADS-B
02:37PM 36.9975 -103.2510 66° East 500 575 37,000  Level FlightAware ADS-B
02:38PM 37.0170 -103.1960 66° East 500 575 37,000  Level FlightAware ADS-B
02:38PM 37.0261 -103.1700 66° East 499 574 37,000  Level FlightAware ADS-B
02:38PM 37.0472 -103.1110 66° East 499 574 37,000  Level FlightAware ADS-B
02:38PM 37.0543 -103.0900 67° East 499 574 37,000  Level FlightAware ADS-B
02:39PM 37.0758 -103.0300 66° East 497 572 37,000  Level FlightAware ADS-B
02:39PM 37.0822 -103.0110 67° East 497 572 37,000  Level FlightAware ADS-B
02:39PM 37.0922 -102.9830 66° East 497 572 37,000  Level FlightAware ADS-B
02:39PM 37.1098 -102.9330 66° East 497 572 37,000  Level FlightAware ADS-B
02:39PM 37.1202 -102.9030 66° East 496 571 37,000  Level FlightAware ADS-B
02:40PM 37.1383 -102.8510 66° East 495 570 37,000  Level FlightAware ADS-B
02:40PM 37.1506 -102.8160 66° East 495 570 37,000  Level FlightAware ADS-B
02:40PM 37.1656 -102.7720 67° East 495 570 37,000  Level FlightAware ADS-B
02:40PM 37.1800 -102.7310 66° East 495 570 37,000  Level FlightAware ADS-B
02:41PM 37.1953 -102.6880 66° East 494 568 37,000  Level FlightAware ADS-B
02:41PM 37.2213 -102.6290 61° Northeast 490 564 37,000  Level FlightAware ADS-B
02:41PM 37.2285 -102.6130 61° Northeast 489 563 37,000  Level FlightAware ADS-B
02:42PM 37.2562 -102.5540 59° Northeast 489 563 37,000  Level FlightAware ADS-B
02:42PM 37.2628 -102.5400 59° Northeast 489 563 37,000  Level FlightAware ADS-B
02:42PM 37.2914 -102.4790 59° Northeast 489 563 37,000  Level FlightAware ADS-B
02:42PM 37.3030 -102.4550 59° Northeast 489 563 37,000  Level FlightAware ADS-B
02:43PM 37.3376 -102.3820 59° Northeast 488 562 37,000  Level FlightAware ADS-B
02:43PM 37.3829 -102.2870 59° Northeast 488 562 37,000 240 Level FlightAware ADS-B
02:44PM 37.4202 -102.2090 59° Northeast 491 565 37,300 720 Climbing FlightAware ADS-B
02:45PM 37.4563 -102.1330 59° Northeast 491 565 37,800 840 Climbing FlightAware ADS-B
02:46PM 37.5265 -101.9860 59° Northeast 489 563 38,600 720 Climbing FlightAware ADS-B
02:46PM 37.5620 -101.9130 58° Northeast 489 563 38,900 360 Climbing FlightAware ADS-B
02:47PM 37.5983 -101.8390 58° Northeast 490 564 39,000 60 Climbing FlightAware ADS-B
02:47PM 37.6379 -101.7590 58° Northeast 492 566 39,000  Level FlightAware ADS-B
02:48PM 37.6852 -101.6630 58° Northeast 492 566 39,000  Level FlightAware ADS-B
02:51PM 37.8981 -101.2380 57° Northeast 487 560 39,000  Level FlightAware ADS-B
02:51PM 37.9424 -101.1510 57° Northeast 488 562 39,000  Level FlightAware ADS-B
02:52PM 37.9806 -101.0750 57° Northeast 488 562 39,000  Level FlightAware ADS-B
02:52PM 38.0174 -101.0020 57° Northeast 487 560 39,000  Level FlightAware ADS-B
02:53PM 38.0549 -100.9280 57° Northeast 488 562 39,000  Level FlightAware ADS-B
02:53PM 38.0920 -100.8550 57° Northeast 488 562 39,000  Level FlightAware ADS-B
02:54PM 38.1311 -100.7790 57° Northeast 489 563 39,000  Level FlightAware ADS-B
02:54PM 38.1770 -100.6890 57° Northeast 488 562 39,000  Level FlightAware ADS-B
02:55PM 38.2129 -100.6180 57° Northeast 474 545 39,000  Level FlightAware ADS-B
02:55PM 38.2486 -100.5480 57° Northeast 471 542 39,000  Level FlightAware ADS-B
02:56PM 38.2858 -100.4750 57° Northeast 474 545 39,000  Level FlightAware ADS-B
02:56PM 38.2947 -100.4550 60° Northeast 476 548 39,000  Level FlightAware ADS-B
02:56PM 38.3121 -100.4050 66° East 479 551 39,000  Level FlightAware ADS-B
02:57PM 38.3340 -100.3240 71° East 480 552 39,000  Level FlightAware ADS-B
02:58PM 38.3562 -100.2410 71° East 481 554 39,000  Level FlightAware ADS-B
02:58PM 38.3791 -100.1570 71° East 483 556 39,000  Level FlightAware ADS-B
02:59PM 38.4009 -100.0760 71° East 483 556 39,000  Level FlightAware ADS-B
02:59PM 38.4276 -99.9763 71° East 483 556 39,000  Level FlightAware ADS-B
03:00PM 38.4640 -99.8410 71° East 481 554 39,000  Level FlightAware
03:01PM 38.4962 -99.7213 71° East 482 555 39,000  Level FlightAware ADS-B
03:01PM 38.5200 -99.6330 71° East 479 551 39,000  Level FlightAware
03:03PM 38.6030 -99.3180 71° East 469 540 39,000  Level FlightAware
03:04PM 38.6260 -99.2290 72° East 468 539 39,000  Level FlightAware
03:05PM 38.6530 -99.0680 78° East 468 539 39,000  Level FlightAware
03:05PM 38.6690 -98.9780 77° East 468 539 39,000  Level FlightAware
03:07PM 38.7260 -98.6530 77° East 467 537 39,000  Level FlightAware
03:08PM 38.7450 -98.5450 77° East 467 537 39,000  Level FlightAware
03:09PM 38.7650 -98.4300 77° East 467 537 39,000  Level FlightAware
03:10PM 38.7830 -98.3120 79° East 468 539 39,000  Level FlightAware
03:10PM 38.7960 -98.2240 79° East 469 540 39,000  Level FlightAware
03:11PM 38.8260 -98.0290 79° East 469 540 39,000  Level FlightAware
03:12PM 38.8460 -97.9040 78° East 471 542 39,000  Level FlightAware
03:13PM 38.8630 -97.7940 79° East 471 542 39,000  Level FlightAware
03:13PM 38.8820 -97.6720 79° East 470 541 39,000  Level FlightAware
03:14PM 38.9020 -97.5540 78° East 470 541 39,000  Level FlightAware
03:15PM 38.9140 -97.4770 79° East 470 541 39,000  Level FlightAware
03:15PM 38.9340 -97.3600 78° East 469 540 39,000  Level FlightAware
03:16PM 38.9630 -97.1950 77° East 468 539 39,000  Level FlightAware
03:17PM 38.9800 -97.0830 79° East 466 536 39,000  Level FlightAware
03:18PM 38.9980 -96.9620 79° East 465 535 39,000  Level FlightAware
03:18PM 39.0160 -96.8490 78° East 466 536 39,000  Level FlightAware
03:19PM 39.0330 -96.7370 79° East 465 535 39,000  Level FlightAware
03:21PM 39.0680 -96.5050 79° East 466 536 39,000  Level FlightAware
03:21PM 39.0810 -96.3950 81° East 467 537 39,000  Level FlightAware
03:22PM 39.0930 -96.2840 82° East 469 540 39,000  Level FlightAware
03:23PM 39.1060 -96.1630 82° East 469 540 39,000  Level FlightAware
03:23PM 39.1200 -96.0530 81° East 471 542 39,000  Level FlightAware
03:24PM 39.1370 -95.9400 79° East 472 543 39,000  Level FlightAware
03:25PM 39.1570 -95.8150 78° East 472 543 39,000  Level FlightAware
03:26PM 39.1640 -95.7720 78° East 473 544 39,000  Level FlightAware
03:27PM 39.2080 -95.5250 77° East 472 543 39,000  Level FlightAware
03:27PM 39.2260 -95.4260 77° East 472 543 39,000  Level FlightAware
03:28PM 39.2490 -95.3160 75° East 472 543 39,000  Level FlightAware
03:28PM 39.2720 -95.2090 74° East 472 543 39,000  Level FlightAware
03:29PM 39.2980 -95.0950 74° East 472 543 39,000  Level FlightAware
03:30PM 39.3210 -94.9980 73° East 471 542 39,000  Level FlightAware
03:31PM 39.3570 -94.8640 71° East 472 543 39,000  Level FlightAware
03:31PM 39.3860 -94.7560 71° East 472 543 39,000  Level FlightAware
03:32PM 39.4190 -94.6400 70° East 472 543 39,000  Level FlightAware
03:33PM 39.4500 -94.5330 69° East 474 545 39,000  Level FlightAware
03:33PM 39.4820 -94.4270 69° East 475 547 39,000  Level FlightAware
03:34PM 39.5090 -94.3380 69° East 476 548 39,000  Level FlightAware
03:35PM 39.5460 -94.2240 67° East 476 548 39,000  Level FlightAware
03:36PM 39.5820 -94.1250 65° Northeast 477 549 39,000  Level FlightAware
03:36PM 39.6490 -93.9440 64° Northeast 477 549 39,000  Level FlightAware
03:37PM 39.6780 -93.8660 64° Northeast 477 549 39,000  Level FlightAware
03:38PM 39.7220 -93.7440 65° Northeast 477 549 39,000  Level FlightAware
03:38PM 39.7620 -93.6360 64° Northeast 478 550 39,000  Level FlightAware
03:39PM 39.8000 -93.5310 65° Northeast 479 551 39,000  Level FlightAware
03:40PM 39.8390 -93.4230 65° Northeast 479 551 39,000  Level FlightAware
03:41PM 39.8810 -93.3070 65° Northeast 479 551 39,000  Level FlightAware
03:41PM 39.9190 -93.2010 65° Northeast 480 552 39,000  Level FlightAware
03:42PM 39.9550 -93.0990 65° Northeast 479 551 39,000  Level FlightAware
03:43PM 39.9960 -92.9840 65° Northeast 479 551 39,000  Level FlightAware
03:43PM 40.0370 -92.8690 65° Northeast 478 550 39,000  Level FlightAware
03:44PM 40.0760 -92.7590 65° Northeast 479 551 39,000  Level FlightAware
03:45PM 40.1100 -92.6620 65° Northeast 478 550 39,000  Level FlightAware
03:45PM 40.1540 -92.5390 65° Northeast 478 550 39,000  Level FlightAware
03:46PM 40.1870 -92.4480 65° Northeast 478 550 39,000  Level FlightAware
03:47PM 40.2300 -92.3310 64° Northeast 478 550 39,000  Level FlightAware
03:48PM 40.2720 -92.2130 65° Northeast 480 552 39,000  Level FlightAware
03:48PM 40.3210 -92.0740 65° Northeast 480 552 39,000  Level FlightAware
03:49PM 40.3630 -91.9580 65° Northeast 483 556 39,000 -420 Level FlightAware
03:50PM 40.4060 -91.8370 65° Northeast 483 556 38,400 -1,680 Descending FlightAware
03:51PM 40.4570 -91.6900 65° Northeast 483 556 36,200 -2,280 Descending FlightAware
03:51PM 40.4910 -91.5880 66° East 478 550 34,800 -2,280 Descending FlightAware
03:52PM 40.5290 -91.4760 66° East 479 551 33,100 -1,320 Descending FlightAware
03:53PM 40.5680 -91.3620 66° East 491 565 33,000 -120 Descending FlightAware
03:54PM 40.6230 -91.2020 66° East 494 568 33,000  Level FlightAware
03:55PM 40.6600 -91.0920 66° East 496 571 33,000  Level FlightAware
03:55PM 40.6840 -91.0240 65° Northeast 493 567 33,000  Level FlightAware
03:56PM 40.7190 -90.9200 66° East 495 570 33,000  Level FlightAware
03:56PM 40.7610 -90.7960 66° East 496 571 33,000  Level FlightAware
03:57PM 40.7980 -90.6840 66° East 496 571 33,000  Level FlightAware
03:57PM 40.8260 -90.6020 66° East 497 572 33,000  Level FlightAware
03:58PM 40.8790 -90.4430 66° East 498 573 33,000 -180 Level FlightAware
03:59PM 40.9180 -90.3250 66° East 499 574 32,800 -1,560 Descending FlightAware
04:00PM 40.9550 -90.2140 66° East 504 580 30,900 -2,640 Descending FlightAware
04:00PM 40.9920 -90.1020 66° East 497 572 29,300 -2,220 Descending FlightAware
04:01PM 41.0300 -89.9860 66° East 485 558 27,900 -1,800 Descending FlightAware
04:02PM 41.0680 -89.8710 66° East 460 529 26,800 -1,620 Descending FlightAware
04:03PM 41.1000 -89.7710 67° East 435 501 25,700 -1,560 Descending FlightAware
04:03PM 41.1310 -89.6760 67° East 407 468 24,700 -1,260 Descending FlightAware
04:04PM 41.1620 -89.5830 66° East 381 438 24,000 -1,560 Descending FlightAware
04:05PM 41.1990 -89.4910 62° Northeast 383 441 22,500 -1,980 Descending FlightAware
04:05PM 41.2320 -89.4110 61° Northeast 381 438 21,300 -1,800 Descending FlightAware
04:06PM 41.2660 -89.3250 62° Northeast 377 434 20,100 -1,860 Descending FlightAware
04:07PM 41.3020 -89.2350 62° Northeast 366 421 18,700 -1,800 Descending FlightAware
04:07PM 41.3300 -89.1660 62° Northeast 356 410 17,700 -1,800 Descending FlightAware
04:08PM 41.3680 -89.0700 62° Northeast 353 406 16,200 -1,740 Descending FlightAware
04:09PM 41.3940 -89.0050 62° Northeast 356 410 15,300 -1,680 Descending FlightAware
04:10PM 41.4300 -88.9160 62° Northeast 352 405 14,000 -1,740 Descending FlightAware
04:10PM 41.4630 -88.8330 62° Northeast 343 395 12,700 -1,680 Descending FlightAware
04:11PM 41.4930 -88.7570 62° Northeast 324 373 11,600 -1,440 Descending FlightAware
04:12PM 41.5150 -88.7010 62° Northeast 312 359 10,900 -540 Descending FlightAware
04:12PM 41.5500 -88.6120 62° Northeast 303 349 10,900 -300 Level FlightAware
04:13PM 41.5740 -88.5390 66° East 308 354 10,500 -900 Descending FlightAware
04:14PM 41.5910 -88.4900 65° Northeast 305 351 9,900 -1,440 Descending FlightAware
04:14PM 41.6070 -88.4420 66° East 302 348 9,200 -1,320 Descending FlightAware
04:14PM 41.6220 -88.3970 66° East 292 336 8,700 -1,020 Descending FlightAware
04:15PM 41.6370 -88.3550 64° Northeast 275 316 8,300 -900 Descending FlightAware
04:15PM 41.6510 -88.3140 65° Northeast 250 288 7,900 -960 Descending FlightAware
04:16PM 41.6650 -88.2720 66° East 234 269 7,400 -900 Descending FlightAware
04:16PM 41.6750 -88.2420 66° East 225 259 7,100 -600 Descending FlightAware
04:17PM 41.6830 -88.2240 59° Northeast 210 242 7,000 -840 Descending FlightAware
04:17PM 41.7010 -88.1970 48° Northeast 201 231 6,500 -1,020 Descending FlightAware
04:17PM 41.7100 -88.1850 45° Northeast 198 228 6,300 -1,140 Descending FlightAware
04:18PM 41.7310 -88.1610 40° Northeast 195 224 5,700 -1,320 Descending FlightAware
04:18PM 41.7490 -88.1400 41° Northeast 195 224 5,100 -1,200 Descending FlightAware
04:19PM 41.7680 -88.1180 41° Northeast 192 221 4,600 -960 Descending FlightAware
04:19PM 41.7850 -88.0990 40° Northeast 186 214 4,300 -600 Descending FlightAware
04:20PM 41.8030 -88.0770 42° Northeast 184 212 4,100 -420 Descending FlightAware
04:20PM 41.8120 -88.0670 40° Northeast 184 212 4,000 -600 Descending FlightAware
04:20PM 41.8300 -88.0450 42° Northeast 186 214 3,700 -780 Descending FlightAware
04:21PM 41.8490 -88.0230 41° Northeast 182 209 3,300 -960 Descending FlightAware
04:21PM 41.8670 -88.0020 41° Northeast 167 192 2,800 -960 Descending FlightAware
04:22PM 41.8820 -87.9830 43° Northeast 159 183 2,400 -840 Descending FlightAware
04:22PM 41.8940 -87.9700 39° Northeast 154 177 2,100 -900 Descending FlightAware
04:22PM 41.9050 -87.9570 41° Northeast 147 169 1,800 -840 Descending FlightAware
04:23PM 41.9150 -87.9450 42° Northeast 136 157 1,600 -660 Descending FlightAware
04:23PM 41.9230 -87.9350 43° Northeast 128 147 1,400 -780 Descending FlightAware
04:23PM 41.9330 -87.9230 42° Northeast 128 147 1,100 -720 Descending FlightAware
04:24PM 41.9490 -87.9040 41° Northeast 128 147 700 -720 Descending FlightAware
04:24PM 41.9610 -87.8910 39° Northeast 86 99 -1,560 Descending FlightAware